Time,TemperatureF,DewpointF,PressureIn,WindDirection,WindDirectionDegrees,WindSpeedMPH,WindSpeedGustMPH,Humidity,HourlyPrecipIn,Conditions,Clouds,dailyrainin,SoftwareType,DateUTC
2013-12-15 00:01:00,22.8,15.4,29.87,North,0,6.0,6.0,73,0.00,,,0.00,meteobridge,2013-12-15 05:01:00,
2013-12-15 00:02:00,22.8,15.4,29.87,North,0,6.0,6.0,73,0.00,,,0.00,meteobridge,2013-12-15 05:02:00,
2013-12-15 00:03:00,22.3,14.9,29.86,West,270,3.1,6.0,73,0.00,,,0.00,meteobridge,2013-12-15 05:03:00,
2013-12-15 00:05:00,22.3,14.9,29.86,South,180,2.2,3.1,73,0.00,,,0.00,meteobridge,2013-12-15 05:05:00,
2013-12-15 00:10:00,22.6,15.3,29.85,SE,135,5.4,8.3,73,0.00,,,0.00,meteobridge,2013-12-15 05:10:00,
2013-12-15 00:16:00,23.0,15.1,29.85,West,270,3.1,3.8,71,0.00,,,0.00,meteobridge,2013-12-15 05:16:00,
2013-12-15 00:22:00,23.2,15.3,29.85,South,180,1.6,7.6,71,0.00,,,0.00,meteobridge,2013-12-15 05:22:00,
2013-12-15 00:27:00,23.4,15.6,29.85,South,180,4.5,10.7,72,0.00,,,0.00,meteobridge,2013-12-15 05:27:00,
2013-12-15 00:33:00,23.2,15.4,29.83,East,90,2.2,3.8,72,0.00,,,0.00,meteobridge,2013-12-15 05:33:00,
2013-12-15 00:39:00,23.5,16.2,29.82,SE,135,3.1,3.1,73,0.00,,,0.00,meteobridge,2013-12-15 05:39:00,
2013-12-15 00:44:00,23.7,16.3,29.82,West,270,3.1,3.1,73,0.00,,,0.00,meteobridge,2013-12-15 05:44:00,
2013-12-15 00:50:00,23.7,16.3,29.82,South,180,2.2,3.8,73,0.00,,,0.00,meteobridge,2013-12-15 05:50:00,
2013-12-15 00:55:00,23.7,16.3,29.80,West,270,3.8,3.8,73,0.00,,,0.00,meteobridge,2013-12-15 05:55:00,
2013-12-15 01:01:00,23.7,16.3,29.79,NW,315,7.6,7.6,73,0.00,,,0.00,meteobridge,2013-12-15 06:01:00,
2013-12-15 01:07:00,24.3,16.9,29.77,East,90,3.1,7.6,73,0.00,,,0.00,meteobridge,2013-12-15 06:07:00,
2013-12-15 01:12:00,24.4,17.1,29.76,West,270,4.5,6.0,73,0.00,,,0.00,meteobridge,2013-12-15 06:12:00,
2013-12-15 01:18:00,24.6,17.2,29.75,East,90,9.8,10.7,73,0.00,,,0.00,meteobridge,2013-12-15 06:18:00,
2013-12-15 01:24:00,24.8,16.7,29.75,North,0,3.1,5.4,71,0.00,,,0.00,meteobridge,2013-12-15 06:24:00,
2013-12-15 01:29:00,25.0,16.9,29.73,North,0,3.1,7.6,71,0.00,,,0.00,meteobridge,2013-12-15 06:29:00,
2013-12-15 01:35:00,25.3,17.2,29.72,West,270,5.4,5.4,71,0.00,,,0.00,meteobridge,2013-12-15 06:35:00,
2013-12-15 01:41:00,25.5,17.4,29.70,East,90,5.4,9.2,71,0.00,,,0.00,meteobridge,2013-12-15 06:41:00,
2013-12-15 01:46:00,25.5,17.4,29.72,North,0,3.8,4.5,71,0.00,,,0.00,meteobridge,2013-12-15 06:46:00,
2013-12-15 01:52:00,25.7,17.6,29.71,North,0,1.6,7.6,71,0.00,,,0.00,meteobridge,2013-12-15 06:52:00,
2013-12-15 01:57:00,25.9,17.8,29.71,East,90,4.5,4.5,71,0.00,,,0.00,meteobridge,2013-12-15 06:57:00,
2013-12-15 02:03:00,26.4,18.3,29.69,NW,315,8.3,8.3,71,0.00,,,0.00,meteobridge,2013-12-15 07:03:00,
2013-12-15 02:09:00,26.4,18.0,29.69,NW,315,8.3,8.3,70,0.00,,,0.00,meteobridge,2013-12-15 07:09:00,
2013-12-15 02:14:00,26.6,17.8,29.68,SW,225,8.3,8.3,69,0.00,,,0.00,meteobridge,2013-12-15 07:14:00,
2013-12-15 02:20:00,26.4,18.0,29.67,North,0,1.6,4.5,70,0.00,,,0.00,meteobridge,2013-12-15 07:20:00,
2013-12-15 02:26:00,26.6,18.1,29.66,East,90,6.9,8.3,70,0.00,,,0.00,meteobridge,2013-12-15 07:26:00,
2013-12-15 02:31:00,26.6,18.1,29.66,NE,45,4.5,6.9,70,0.00,,,0.00,meteobridge,2013-12-15 07:31:00,
2013-12-15 02:37:00,26.8,18.3,29.64,East,90,3.1,7.6,70,0.00,,,0.00,meteobridge,2013-12-15 07:37:00,
2013-12-15 02:43:00,27.1,18.7,29.63,West,270,3.1,4.5,70,0.00,,,0.00,meteobridge,2013-12-15 07:43:00,
2013-12-15 02:48:00,27.1,19.0,29.62,North,0,3.1,3.8,71,0.00,,,0.00,meteobridge,2013-12-15 07:48:00,
2013-12-15 02:54:00,27.3,19.2,29.62,North,0,4.5,6.0,71,0.00,,,0.00,meteobridge,2013-12-15 07:54:00,
2013-12-15 02:59:00,27.1,19.0,29.61,South,180,3.8,3.8,71,0.00,,,0.00,meteobridge,2013-12-15 07:59:00,
2013-12-15 03:05:00,27.1,19.0,29.61,West,270,5.4,5.4,71,0.00,,,0.00,meteobridge,2013-12-15 08:05:00,
2013-12-15 03:11:00,27.5,19.4,29.61,SE,135,3.1,9.2,71,0.00,,,0.00,meteobridge,2013-12-15 08:11:00,
2013-12-15 03:16:00,28.0,20.1,29.59,North,0,3.8,6.0,72,0.00,,,0.00,meteobridge,2013-12-15 08:16:00,
2013-12-15 03:22:00,28.0,20.1,29.59,West,270,3.8,4.5,72,0.00,,,0.00,meteobridge,2013-12-15 08:22:00,
2013-12-15 03:28:00,28.4,21.7,29.59,West,270,3.8,4.5,76,0.00,,,0.00,meteobridge,2013-12-15 08:28:00,
2013-12-15 03:33:00,28.4,21.7,29.58,North,0,2.2,2.2,76,0.00,,,0.00,meteobridge,2013-12-15 08:33:00,
2013-12-15 03:39:00,28.4,22.1,29.56,SW,225,3.1,3.1,77,0.00,,,0.00,meteobridge,2013-12-15 08:39:00,
2013-12-15 03:45:00,28.9,22.6,29.55,North,0,2.2,7.6,77,0.00,,,0.00,meteobridge,2013-12-15 08:45:00,
2013-12-15 03:50:00,29.3,23.0,29.54,NW,315,2.2,3.1,77,0.00,,,0.00,meteobridge,2013-12-15 08:50:00,
2013-12-15 03:56:00,29.3,23.0,29.53,West,270,4.5,4.5,77,0.00,,,0.00,meteobridge,2013-12-15 08:56:00,
2013-12-15 04:02:00,29.1,22.8,29.52,SE,135,6.0,6.9,77,0.00,,,0.00,meteobridge,2013-12-15 09:02:00,
2013-12-15 04:07:00,29.5,23.2,29.51,NW,315,3.1,4.5,77,0.00,,,0.00,meteobridge,2013-12-15 09:07:00,
2013-12-15 04:13:00,29.7,23.0,29.51,SE,135,2.2,6.9,76,0.00,,,0.00,meteobridge,2013-12-15 09:13:00,
2013-12-15 04:18:00,29.8,23.2,29.50,North,0,5.4,5.4,76,0.00,,,0.00,meteobridge,2013-12-15 09:18:00,
2013-12-15 04:24:00,29.7,23.0,29.50,North,0,3.1,8.3,76,0.00,,,0.00,meteobridge,2013-12-15 09:24:00,
2013-12-15 04:30:00,29.5,22.8,29.50,South,180,2.2,5.4,76,0.00,,,0.00,meteobridge,2013-12-15 09:30:00,
2013-12-15 04:35:00,29.7,23.0,29.51,North,0,3.8,9.8,76,0.00,,,0.00,meteobridge,2013-12-15 09:35:00,
2013-12-15 04:41:00,29.7,23.0,29.49,North,0,4.5,5.4,76,0.00,,,0.00,meteobridge,2013-12-15 09:41:00,
2013-12-15 04:47:00,29.7,23.0,29.49,South,180,6.9,6.9,76,0.00,,,0.00,meteobridge,2013-12-15 09:47:00,
2013-12-15 04:52:00,29.5,22.8,29.50,West,270,3.1,4.5,76,0.00,,,0.00,meteobridge,2013-12-15 09:52:00,
2013-12-15 04:58:00,29.8,23.2,29.49,West,270,1.6,6.9,76,0.00,,,0.00,meteobridge,2013-12-15 09:58:00,
2013-12-15 05:04:00,29.7,23.0,29.49,SW,225,9.8,9.8,76,0.00,,,0.00,meteobridge,2013-12-15 10:04:00,
2013-12-15 05:09:00,29.1,22.5,29.48,NW,315,6.9,9.8,76,0.00,,,0.00,meteobridge,2013-12-15 10:09:00,
2013-12-15 05:15:00,29.3,23.0,29.49,NW,315,7.6,7.6,77,0.00,,,0.00,meteobridge,2013-12-15 10:15:00,
2013-12-15 05:20:00,29.5,22.8,29.49,NW,315,13.0,13.0,76,0.00,,,0.00,meteobridge,2013-12-15 10:20:00,
2013-12-15 05:26:00,29.3,22.6,29.50,West,270,7.6,11.4,76,0.00,,,0.00,meteobridge,2013-12-15 10:26:00,
2013-12-15 05:32:00,29.5,23.2,29.51,West,270,9.8,9.8,77,0.00,,,0.00,meteobridge,2013-12-15 10:32:00,
2013-12-15 05:37:00,29.8,23.5,29.50,NW,315,8.3,9.2,77,0.00,,,0.00,meteobridge,2013-12-15 10:37:00,
2013-12-15 05:43:00,30.0,23.7,29.49,NW,315,6.9,6.9,77,0.00,,,0.00,meteobridge,2013-12-15 10:43:00,
2013-12-15 05:49:00,30.0,24.1,29.49,NW,315,7.6,9.8,78,0.00,,,0.00,meteobridge,2013-12-15 10:49:00,
2013-12-15 05:54:00,30.2,24.3,29.48,North,0,9.8,9.8,78,0.00,,,0.00,meteobridge,2013-12-15 10:54:00,
2013-12-15 06:00:00,30.2,24.3,29.48,NW,315,6.9,6.9,78,0.00,,,0.00,meteobridge,2013-12-15 11:00:00,
2013-12-15 06:06:00,30.2,24.4,29.47,West,270,6.0,6.9,79,0.00,,,0.00,meteobridge,2013-12-15 11:06:00,
2013-12-15 06:11:00,30.0,24.6,29.47,NW,315,7.6,7.6,80,0.00,,,0.00,meteobridge,2013-12-15 11:11:00,
2013-12-15 06:17:00,30.2,24.4,29.47,NW,315,6.0,6.0,79,0.00,,,0.00,meteobridge,2013-12-15 11:17:00,
2013-12-15 06:22:00,30.4,24.6,29.48,West,270,4.5,6.9,79,0.00,,,0.00,meteobridge,2013-12-15 11:22:00,
2013-12-15 06:28:00,30.4,24.6,29.48,West,270,6.0,6.0,79,0.00,,,0.00,meteobridge,2013-12-15 11:28:00,
2013-12-15 06:34:00,30.7,25.0,29.49,South,180,8.3,13.0,79,0.00,,,0.00,meteobridge,2013-12-15 11:34:00,
2013-12-15 06:39:00,30.6,24.8,29.48,NW,315,9.2,9.2,79,0.00,,,0.00,meteobridge,2013-12-15 11:39:00,
2013-12-15 06:45:00,30.6,24.8,29.48,NW,315,9.2,9.2,79,0.00,,,0.00,meteobridge,2013-12-15 11:45:00,
2013-12-15 06:51:00,30.6,25.2,29.47,NW,315,7.6,7.6,80,0.00,,,0.00,meteobridge,2013-12-15 11:51:00,
2013-12-15 06:56:00,30.7,25.3,29.47,North,0,6.0,6.0,80,0.00,,,0.00,meteobridge,2013-12-15 11:56:00,
2013-12-15 07:02:00,30.9,25.5,29.47,South,180,11.4,11.4,80,0.00,,,0.00,meteobridge,2013-12-15 12:02:00,
2013-12-15 07:08:00,30.7,25.3,29.47,West,270,7.6,8.3,80,0.00,,,0.00,meteobridge,2013-12-15 12:08:00,
2013-12-15 07:13:00,30.7,25.3,29.47,North,0,5.4,5.4,80,0.00,,,0.00,meteobridge,2013-12-15 12:13:00,
2013-12-15 07:19:00,30.7,25.3,29.45,North,0,4.5,4.5,80,0.00,,,0.00,meteobridge,2013-12-15 12:19:00,
2013-12-15 07:25:00,30.6,25.2,29.45,West,270,4.5,7.6,80,0.00,,,0.00,meteobridge,2013-12-15 12:25:00,
2013-12-15 07:30:00,30.6,25.2,29.45,North,0,3.8,6.9,80,0.00,,,0.00,meteobridge,2013-12-15 12:30:00,
2013-12-15 07:36:00,30.6,25.2,29.46,North,0,6.0,6.0,80,0.00,,,0.00,meteobridge,2013-12-15 12:36:00,
2013-12-15 07:41:00,30.6,25.2,29.46,West,270,6.9,7.6,80,0.00,,,0.00,meteobridge,2013-12-15 12:41:00,
2013-12-15 07:47:00,30.6,25.2,29.47,NW,315,6.0,6.0,80,0.00,,,0.00,meteobridge,2013-12-15 12:47:00,
2013-12-15 07:53:00,30.4,25.0,29.47,East,90,9.8,9.8,80,0.00,,,0.00,meteobridge,2013-12-15 12:53:00,
2013-12-15 07:58:00,30.4,24.6,29.48,NW,315,5.4,5.4,79,0.00,,,0.00,meteobridge,2013-12-15 12:58:00,
2013-12-15 08:04:00,30.4,24.6,29.48,West,270,5.4,5.4,79,0.00,,,0.00,meteobridge,2013-12-15 13:04:00,
2013-12-15 08:10:00,30.2,24.4,29.47,North,0,6.9,6.9,79,0.00,,,0.00,meteobridge,2013-12-15 13:10:00,
2013-12-15 08:15:00,30.0,24.6,29.47,NW,315,6.9,9.8,80,0.00,,,0.00,meteobridge,2013-12-15 13:15:00,
2013-12-15 08:21:00,29.8,24.4,29.47,West,270,6.9,9.8,80,0.00,,,0.00,meteobridge,2013-12-15 13:21:00,
2013-12-15 08:27:00,30.0,24.6,29.47,South,180,6.0,9.2,80,0.00,,,0.00,meteobridge,2013-12-15 13:27:00,
2013-12-15 08:32:00,30.0,24.3,29.47,South,180,9.2,9.2,79,0.00,,,0.00,meteobridge,2013-12-15 13:32:00,
2013-12-15 08:38:00,30.0,24.3,29.47,NW,315,3.8,6.0,79,0.00,,,0.00,meteobridge,2013-12-15 13:38:00,
2013-12-15 08:43:00,29.8,24.1,29.47,West,270,6.0,6.0,79,0.00,,,0.00,meteobridge,2013-12-15 13:43:00,
2013-12-15 08:49:00,29.8,24.1,29.47,NW,315,5.4,6.9,79,0.00,,,0.00,meteobridge,2013-12-15 13:49:00,
2013-12-15 08:55:00,29.8,24.1,22.91,West,270,11.4,11.4,79,0.00,,,0.00,meteobridge,2013-12-15 13:55:00,
2013-12-15 09:00:00,29.8,24.1,29.48,West,270,10.7,13.0,79,0.00,,,0.00,meteobridge,2013-12-15 14:00:00,
2013-12-15 09:06:00,29.7,23.9,29.49,NW,315,5.4,10.7,79,0.00,,,0.00,meteobridge,2013-12-15 14:06:00,
2013-12-15 09:12:00,29.7,23.7,29.49,North,0,8.3,9.8,78,0.00,,,0.00,meteobridge,2013-12-15 14:12:00,
2013-12-15 09:17:00,29.3,23.4,29.50,South,180,5.4,10.7,78,0.00,,,0.00,meteobridge,2013-12-15 14:17:00,
2013-12-15 09:23:00,29.3,23.4,29.50,West,270,5.4,9.2,78,0.00,,,0.00,meteobridge,2013-12-15 14:23:00,
2013-12-15 09:29:00,29.3,23.4,29.50,West,270,6.0,10.7,78,0.00,,,0.00,meteobridge,2013-12-15 14:29:00,
2013-12-15 09:34:00,29.1,23.2,29.49,West,270,5.4,9.2,78,0.00,,,0.00,meteobridge,2013-12-15 14:34:00,
2013-12-15 09:40:00,28.9,23.0,29.49,NW,315,5.4,10.7,78,0.00,,,0.00,meteobridge,2013-12-15 14:40:00,
2013-12-15 09:46:00,28.4,22.1,29.49,West,270,7.6,13.0,77,0.00,,,0.00,meteobridge,2013-12-15 14:46:00,
2013-12-15 09:51:00,28.8,22.5,29.48,SW,225,8.3,12.1,77,0.00,,,0.00,meteobridge,2013-12-15 14:51:00,
2013-12-15 09:57:00,28.8,22.5,29.48,NW,315,4.5,6.9,77,0.00,,,0.00,meteobridge,2013-12-15 14:57:00,
2013-12-15 10:02:00,28.8,22.5,29.48,NW,315,5.4,6.0,77,0.00,,,0.00,meteobridge,2013-12-15 15:02:00,
2013-12-15 10:08:00,29.3,23.0,29.48,NW,315,6.9,6.9,77,0.00,,,0.00,meteobridge,2013-12-15 15:08:00,
2013-12-15 10:14:00,29.1,22.8,29.48,West,270,3.8,7.6,77,0.00,,,0.00,meteobridge,2013-12-15 15:14:00,
2013-12-15 10:19:00,29.1,22.8,29.49,West,270,9.8,9.8,77,0.00,,,0.00,meteobridge,2013-12-15 15:19:00,
2013-12-15 10:25:00,29.3,23.0,29.49,West,270,7.6,9.2,77,0.00,,,0.00,meteobridge,2013-12-15 15:25:00,
2013-12-15 10:31:00,29.8,23.5,29.48,North,0,5.4,9.2,77,0.00,,,0.00,meteobridge,2013-12-15 15:31:00,
2013-12-15 10:36:00,29.7,23.0,29.49,West,270,11.4,11.4,76,0.00,,,0.00,meteobridge,2013-12-15 15:36:00,
2013-12-15 10:42:00,31.5,24.4,29.48,West,270,7.6,7.6,75,0.00,,,0.00,meteobridge,2013-12-15 15:42:00,
2013-12-15 10:48:00,30.6,23.2,29.48,NW,315,9.8,10.7,74,0.00,,,0.00,meteobridge,2013-12-15 15:48:00,
2013-12-15 10:53:00,30.6,23.2,29.48,West,270,8.3,11.4,74,0.00,,,0.00,meteobridge,2013-12-15 15:53:00,
2013-12-15 10:59:00,30.4,23.2,29.48,North,0,6.9,7.6,74,0.00,,,0.00,meteobridge,2013-12-15 15:59:00,
2013-12-15 11:04:00,29.8,22.8,29.47,South,180,9.8,11.4,75,0.00,,,0.00,meteobridge,2013-12-15 16:04:00,
2013-12-15 11:10:00,30.6,23.5,29.47,West,270,11.4,11.4,75,0.00,,,0.00,meteobridge,2013-12-15 16:10:00,
2013-12-15 11:16:00,30.6,23.2,29.48,West,270,6.9,7.6,74,0.00,,,0.00,meteobridge,2013-12-15 16:16:00,
2013-12-15 11:21:00,30.7,23.4,29.48,NW,315,11.4,11.4,74,0.00,,,0.00,meteobridge,2013-12-15 16:21:00,
2013-12-15 11:27:00,31.1,23.7,29.48,West,270,9.8,13.6,74,0.00,,,0.00,meteobridge,2013-12-15 16:27:00,
2013-12-15 11:33:00,32.0,24.3,29.48,West,270,6.0,9.8,73,0.00,,,0.00,meteobridge,2013-12-15 16:33:00,
2013-12-15 11:38:00,30.7,23.2,29.49,South,180,5.4,12.1,73,0.00,,,0.00,meteobridge,2013-12-15 16:38:00,
2013-12-15 11:44:00,31.8,24.4,29.49,North,0,6.9,6.9,74,0.00,,,0.00,meteobridge,2013-12-15 16:44:00,
2013-12-15 11:50:00,31.5,24.1,29.48,West,270,5.4,5.4,74,0.00,,,0.00,meteobridge,2013-12-15 16:50:00,
2013-12-15 11:55:00,31.5,24.1,29.48,West,270,3.8,5.4,74,0.00,,,0.00,meteobridge,2013-12-15 16:55:00,
2013-12-15 12:01:00,31.6,24.3,29.48,West,270,6.0,6.0,74,0.00,,,0.00,meteobridge,2013-12-15 17:01:00,
2013-12-15 12:06:00,31.5,24.1,29.48,NW,315,6.0,6.0,74,0.00,,,0.00,meteobridge,2013-12-15 17:06:00,
2013-12-15 12:12:00,31.6,24.3,29.49,NE,45,6.9,8.3,74,0.00,,,0.00,meteobridge,2013-12-15 17:12:00,
2013-12-15 12:18:00,31.5,24.1,29.49,West,270,12.1,12.1,74,0.00,,,0.00,meteobridge,2013-12-15 17:18:00,
2013-12-15 12:23:00,32.0,24.3,29.49,West,270,3.8,6.9,73,0.00,,,0.00,meteobridge,2013-12-15 17:23:00,
2013-12-15 12:29:00,32.2,24.4,29.49,North,0,8.3,8.3,73,0.00,,,0.00,meteobridge,2013-12-15 17:29:00,
2013-12-15 12:35:00,31.1,23.7,29.49,NW,315,8.3,8.3,74,0.00,,,0.00,meteobridge,2013-12-15 17:35:00,
2013-12-15 12:40:00,31.5,24.1,29.49,West,270,5.4,5.4,74,0.00,,,0.00,meteobridge,2013-12-15 17:40:00,
2013-12-15 12:46:00,31.3,23.9,29.49,North,0,5.4,5.4,74,0.00,,,0.00,meteobridge,2013-12-15 17:46:00,
2013-12-15 12:52:00,30.9,23.5,29.49,North,0,2.2,5.4,74,0.00,,,0.00,meteobridge,2013-12-15 17:52:00,
2013-12-15 12:57:00,30.7,23.4,29.50,North,0,5.4,5.4,74,0.00,,,0.00,meteobridge,2013-12-15 17:57:00,
2013-12-15 13:03:00,30.9,23.5,29.50,North,0,3.1,4.5,74,0.00,,,0.00,meteobridge,2013-12-15 18:03:00,
2013-12-15 13:09:00,31.5,24.1,29.50,North,0,0.7,3.1,74,0.00,,,0.00,meteobridge,2013-12-15 18:09:00,
2013-12-15 13:14:00,31.3,23.9,29.50,North,0,2.2,3.8,74,0.00,,,0.00,meteobridge,2013-12-15 18:14:00,
2013-12-15 13:20:00,31.1,23.7,29.51,North,0,6.0,6.0,74,0.00,,,0.00,meteobridge,2013-12-15 18:20:00,
2013-12-15 13:25:00,31.1,23.7,29.51,West,270,3.8,4.5,74,0.00,,,0.00,meteobridge,2013-12-15 18:25:00,
2013-12-15 13:31:00,31.3,23.9,29.51,North,0,4.5,4.5,74,0.00,,,0.00,meteobridge,2013-12-15 18:31:00,
2013-12-15 13:37:00,31.1,23.7,29.52,North,0,2.2,3.8,74,0.00,,,0.00,meteobridge,2013-12-15 18:37:00,
2013-12-15 13:42:00,31.3,23.9,29.51,North,0,3.1,6.0,74,0.00,,,0.00,meteobridge,2013-12-15 18:42:00,
2013-12-15 13:48:00,31.5,24.1,29.52,North,0,2.2,3.8,74,0.00,,,0.00,meteobridge,2013-12-15 18:48:00,
2013-12-15 13:54:00,31.6,24.3,29.51,North,0,2.2,2.2,74,0.00,,,0.00,meteobridge,2013-12-15 18:54:00,
2013-12-15 13:59:00,32.2,24.8,29.52,NW,315,3.1,3.1,74,0.00,,,0.00,meteobridge,2013-12-15 18:59:00,
2013-12-15 14:05:00,31.8,24.4,29.52,SE,135,3.1,5.4,74,0.00,,,0.00,meteobridge,2013-12-15 19:05:00,
2013-12-15 14:10:00,31.6,24.3,29.52,North,0,3.1,5.4,74,0.00,,,0.00,meteobridge,2013-12-15 19:10:00,
2013-12-15 14:15:00,32.2,24.4,29.52,North,0,3.8,3.8,73,0.00,,,0.00,meteobridge,2013-12-15 19:15:00,
2013-12-15 14:21:00,32.0,24.3,29.52,North,0,2.2,3.8,73,0.00,,,0.00,meteobridge,2013-12-15 19:21:00,
2013-12-15 14:27:00,32.0,24.3,29.53,NW,315,3.1,3.8,73,0.00,,,0.00,meteobridge,2013-12-15 19:27:00,
2013-12-15 14:32:00,32.2,24.4,29.53,North,0,2.2,3.1,73,0.00,,,0.00,meteobridge,2013-12-15 19:32:00,
2013-12-15 14:38:00,32.2,24.4,29.53,North,0,4.5,4.5,73,0.00,,,0.00,meteobridge,2013-12-15 19:38:00,
2013-12-15 14:44:00,32.2,24.4,29.54,West,270,3.1,3.1,73,0.00,,,0.00,meteobridge,2013-12-15 19:44:00,
2013-12-15 14:49:00,32.4,24.6,29.54,North,0,4.5,5.4,73,0.00,,,0.00,meteobridge,2013-12-15 19:49:00,
2013-12-15 14:53:00,32.2,24.4,29.54,NW,315,6.9,6.9,73,0.00,,,0.00,meteobridge,2013-12-15 19:53:00,
2013-12-15 14:58:00,32.4,24.6,29.54,North,0,3.1,4.5,73,0.00,,,0.00,meteobridge,2013-12-15 19:58:00,
2013-12-15 15:04:00,32.7,25.3,29.55,North,0,5.4,5.4,74,0.00,,,0.00,meteobridge,2013-12-15 20:04:00,
2013-12-15 15:10:00,32.5,24.8,29.56,West,270,1.6,1.6,73,0.00,,,0.00,meteobridge,2013-12-15 20:10:00,
2013-12-15 15:15:00,32.9,25.5,29.56,West,270,0.7,1.6,74,0.00,,,0.00,meteobridge,2013-12-15 20:15:00,
2013-12-15 15:21:00,32.7,25.3,29.57,West,270,2.2,2.2,74,0.00,,,0.00,meteobridge,2013-12-15 20:21:00,
2013-12-15 15:27:00,32.7,25.3,29.57,West,270,1.6,1.6,74,0.00,,,0.00,meteobridge,2013-12-15 20:27:00,
2013-12-15 15:32:00,32.7,25.3,29.57,West,270,1.6,3.8,74,0.00,,,0.00,meteobridge,2013-12-15 20:32:00,
2013-12-15 15:38:00,32.7,25.3,29.58,West,270,2.2,3.1,74,0.00,,,0.00,meteobridge,2013-12-15 20:38:00,
2013-12-15 15:44:00,32.9,25.5,29.59,West,270,6.0,6.0,74,0.00,,,0.00,meteobridge,2013-12-15 20:44:00,
2013-12-15 15:49:00,32.9,25.5,29.59,West,270,2.2,4.5,74,0.00,,,0.00,meteobridge,2013-12-15 20:49:00,
2013-12-15 15:55:00,33.1,25.3,29.59,West,270,2.2,3.1,73,0.00,,,0.00,meteobridge,2013-12-15 20:55:00,
2013-12-15 16:01:00,33.1,25.3,29.59,West,270,0.0,1.6,73,0.00,,,0.00,meteobridge,2013-12-15 21:01:00,
2013-12-15 16:06:00,32.9,25.2,29.59,West,270,3.1,3.1,73,0.00,,,0.00,meteobridge,2013-12-15 21:06:00,
2013-12-15 16:12:00,33.3,25.5,29.59,NW,315,3.8,3.8,73,0.00,,,0.00,meteobridge,2013-12-15 21:12:00,
2013-12-15 16:17:00,33.3,25.5,29.60,West,270,3.8,3.8,73,0.00,,,0.00,meteobridge,2013-12-15 21:17:00,
2013-12-15 16:23:00,33.6,25.9,29.60,West,270,0.0,0.0,73,0.00,,,0.00,meteobridge,2013-12-15 21:23:00,
2013-12-15 16:29:00,33.6,25.5,29.61,West,270,2.2,3.8,72,0.00,,,0.00,meteobridge,2013-12-15 21:29:00,
2013-12-15 16:34:00,33.4,25.3,29.61,West,270,1.6,3.1,72,0.00,,,0.00,meteobridge,2013-12-15 21:34:00,
2013-12-15 16:40:00,32.7,25.0,29.62,West,270,2.2,3.1,73,0.00,,,0.00,meteobridge,2013-12-15 21:40:00,
2013-12-15 16:46:00,32.7,25.0,29.62,NW,315,1.6,3.1,73,0.00,,,0.00,meteobridge,2013-12-15 21:46:00,
2013-12-15 16:51:00,32.9,25.2,29.62,West,270,1.6,2.2,73,0.00,,,0.00,meteobridge,2013-12-15 21:51:00,
2013-12-15 16:57:00,33.4,25.7,29.63,West,270,1.6,3.8,73,0.00,,,0.00,meteobridge,2013-12-15 21:57:00,
2013-12-15 17:03:00,33.4,25.3,29.63,South,180,6.9,6.9,72,0.00,,,0.00,meteobridge,2013-12-15 22:03:00,
2013-12-15 17:08:00,34.2,24.6,29.63,West,270,4.5,9.8,68,0.00,,,0.00,meteobridge,2013-12-15 22:08:00,
2013-12-15 17:14:00,33.6,23.9,29.64,South,180,3.8,3.8,67,0.00,,,0.00,meteobridge,2013-12-15 22:14:00,
2013-12-15 17:19:00,34.0,23.0,29.64,West,270,7.6,15.2,64,0.00,,,0.00,meteobridge,2013-12-15 22:19:00,
2013-12-15 17:25:00,34.2,22.5,29.64,West,270,13.0,13.6,62,0.00,,,0.00,meteobridge,2013-12-15 22:25:00,
2013-12-15 17:31:00,34.0,21.9,29.64,South,180,4.5,9.2,61,0.00,,,0.00,meteobridge,2013-12-15 22:31:00,
2013-12-15 17:36:00,33.6,21.6,29.65,West,270,8.3,9.2,61,0.00,,,0.00,meteobridge,2013-12-15 22:36:00,
2013-12-15 17:42:00,33.4,21.7,29.65,West,270,3.1,3.8,62,0.00,,,0.00,meteobridge,2013-12-15 22:42:00,
2013-12-15 17:48:00,33.3,21.7,29.65,South,180,9.8,9.8,62,0.00,,,0.00,meteobridge,2013-12-15 22:48:00,
2013-12-15 17:53:00,33.1,21.0,29.66,West,270,6.9,6.9,61,0.00,,,0.00,meteobridge,2013-12-15 22:53:00,
2013-12-15 17:59:00,33.3,20.8,29.66,SW,225,8.3,8.3,60,0.00,,,0.00,meteobridge,2013-12-15 22:59:00,
2013-12-15 18:05:00,32.9,20.5,29.66,NW,315,4.5,6.0,60,0.00,,,0.00,meteobridge,2013-12-15 23:05:00,
2013-12-15 18:10:00,32.9,20.5,29.66,West,270,8.3,8.3,60,0.00,,,0.00,meteobridge,2013-12-15 23:10:00,
2013-12-15 18:16:00,32.9,20.1,29.67,West,270,2.2,3.1,59,0.00,,,0.00,meteobridge,2013-12-15 23:16:00,
2013-12-15 18:21:00,32.5,19.8,29.66,West,270,4.5,4.5,59,0.00,,,0.00,meteobridge,2013-12-15 23:21:00,
2013-12-15 18:27:00,32.7,19.9,29.67,West,270,6.0,6.9,59,0.00,,,0.00,meteobridge,2013-12-15 23:27:00,
2013-12-15 18:33:00,32.0,19.2,29.67,West,270,6.0,6.0,59,0.00,,,0.00,meteobridge,2013-12-15 23:33:00,
2013-12-15 18:38:00,31.8,19.6,29.67,NW,315,7.6,7.6,60,0.00,,,0.00,meteobridge,2013-12-15 23:38:00,
2013-12-15 18:44:00,32.0,19.2,29.67,North,0,3.1,3.1,59,0.00,,,0.00,meteobridge,2013-12-15 23:44:00,
2013-12-15 18:50:00,31.8,19.9,29.68,West,270,0.7,1.6,61,0.00,,,0.00,meteobridge,2013-12-15 23:50:00,
2013-12-15 18:55:00,31.6,19.8,29.68,West,270,0.0,1.6,61,0.00,,,0.00,meteobridge,2013-12-15 23:55:00,
2013-12-15 19:01:00,31.3,19.4,29.68,SW,225,1.6,1.6,61,0.00,,,0.00,meteobridge,2013-12-16 00:01:00,
2013-12-15 19:07:00,31.5,19.6,29.68,SE,135,3.8,3.8,61,0.00,,,0.00,meteobridge,2013-12-16 00:07:00,
2013-12-15 19:12:00,31.8,19.0,29.69,NW,315,3.1,6.9,59,0.00,,,0.00,meteobridge,2013-12-16 00:12:00,
2013-12-15 19:18:00,31.3,18.1,29.68,North,0,2.2,2.2,58,0.00,,,0.00,meteobridge,2013-12-16 00:18:00,
2013-12-15 19:24:00,32.0,17.2,29.69,West,270,6.0,6.0,54,0.00,,,0.00,meteobridge,2013-12-16 00:24:00,
2013-12-15 19:29:00,31.6,17.2,29.69,West,270,2.2,2.2,55,0.00,,,0.00,meteobridge,2013-12-16 00:29:00,
2013-12-15 19:35:00,31.5,17.2,29.69,West,270,1.6,3.1,55,0.00,,,0.00,meteobridge,2013-12-16 00:35:00,
2013-12-15 19:40:00,30.6,16.7,29.69,South,180,0.7,0.7,56,0.00,,,0.00,meteobridge,2013-12-16 00:40:00,
2013-12-15 19:46:00,31.5,17.6,29.70,West,270,6.9,7.6,56,0.00,,,0.00,meteobridge,2013-12-16 00:46:00,
2013-12-15 19:52:00,31.5,17.2,29.70,West,270,3.8,4.5,55,0.00,,,0.00,meteobridge,2013-12-16 00:52:00,
2013-12-15 19:57:00,31.3,17.1,29.70,South,180,3.8,6.0,55,0.00,,,0.00,meteobridge,2013-12-16 00:57:00,
2013-12-15 20:03:00,30.7,16.9,29.70,South,180,1.6,1.6,56,0.00,,,0.00,meteobridge,2013-12-16 01:03:00,
2013-12-15 20:09:00,30.9,17.4,29.70,East,90,0.0,1.6,57,0.00,,,0.00,meteobridge,2013-12-16 01:09:00,
2013-12-15 20:14:00,30.7,16.9,29.70,SW,225,6.0,6.0,56,0.00,,,0.00,meteobridge,2013-12-16 01:14:00,
2013-12-15 20:20:00,30.7,16.9,29.70,East,90,3.1,3.1,56,0.00,,,0.00,meteobridge,2013-12-16 01:20:00,
2013-12-15 20:25:00,30.7,17.2,29.70,East,90,2.2,2.2,57,0.00,,,0.00,meteobridge,2013-12-16 01:25:00,
2013-12-15 20:30:00,30.6,17.1,29.71,South,180,0.7,2.2,57,0.00,,,0.00,meteobridge,2013-12-16 01:30:00,
2013-12-15 20:36:00,30.6,16.7,29.72,South,180,2.2,2.2,56,0.00,,,0.00,meteobridge,2013-12-16 01:36:00,
2013-12-15 20:42:00,30.7,16.9,29.71,South,180,2.2,3.8,56,0.00,,,0.00,meteobridge,2013-12-16 01:42:00,
2013-12-15 20:47:00,30.6,16.7,29.71,South,180,1.6,1.6,56,0.00,,,0.00,meteobridge,2013-12-16 01:47:00,
2013-12-15 20:53:00,30.0,17.4,29.71,SE,135,2.2,2.2,59,0.00,,,0.00,meteobridge,2013-12-16 01:53:00,
2013-12-15 20:59:00,29.8,16.9,29.71,South,180,0.0,2.2,58,0.00,,,0.00,meteobridge,2013-12-16 01:59:00,
2013-12-15 21:04:00,29.8,17.2,29.71,South,180,1.6,1.6,59,0.00,,,0.00,meteobridge,2013-12-16 02:04:00,
2013-12-15 21:10:00,30.0,17.8,29.71,West,270,2.2,4.5,60,0.00,,,0.00,meteobridge,2013-12-16 02:10:00,
2013-12-15 21:16:00,29.5,17.2,29.71,West,270,0.0,0.0,60,0.00,,,0.00,meteobridge,2013-12-16 02:16:00,
2013-12-15 21:21:00,29.1,17.8,29.71,East,90,0.0,0.0,62,0.00,,,0.00,meteobridge,2013-12-16 02:21:00,
2013-12-15 21:27:00,28.2,14.9,29.71,West,270,0.0,0.0,57,0.00,,,0.00,meteobridge,2013-12-16 02:27:00,
2013-12-15 21:32:00,29.3,17.6,29.72,South,180,0.0,0.0,61,0.00,,,0.00,meteobridge,2013-12-16 02:32:00,
2013-12-15 21:38:00,30.6,18.3,29.71,South,180,0.0,0.0,60,0.00,,,0.00,meteobridge,2013-12-16 02:38:00,
2013-12-15 21:44:00,28.4,16.3,29.71,West,270,0.0,0.7,60,0.00,,,0.00,meteobridge,2013-12-16 02:44:00,
2013-12-15 21:49:00,27.5,15.1,29.71,West,270,0.0,0.0,59,0.00,,,0.00,meteobridge,2013-12-16 02:49:00,
2013-12-15 21:55:00,27.0,15.3,29.72,East,90,1.6,2.2,61,0.00,,,0.00,meteobridge,2013-12-16 02:55:00,
2013-12-15 22:01:00,27.0,15.3,29.72,West,270,0.0,0.0,61,0.00,,,0.00,meteobridge,2013-12-16 03:01:00,
2013-12-15 22:06:00,27.7,16.3,29.72,West,270,0.0,0.0,62,0.00,,,0.00,meteobridge,2013-12-16 03:06:00,
2013-12-15 22:12:00,28.8,19.2,29.72,South,180,0.0,0.0,67,0.00,,,0.00,meteobridge,2013-12-16 03:12:00,
2013-12-15 22:18:00,28.6,18.7,29.73,West,270,1.6,1.6,66,0.00,,,0.00,meteobridge,2013-12-16 03:18:00,
2013-12-15 22:23:00,28.2,16.9,29.72,South,180,0.0,2.2,62,0.00,,,0.00,meteobridge,2013-12-16 03:23:00,
2013-12-15 22:29:00,27.7,16.3,29.72,South,180,0.0,0.0,62,0.00,,,0.00,meteobridge,2013-12-16 03:29:00,
2013-12-15 22:35:00,27.1,16.2,29.72,West,270,2.2,2.2,63,0.00,,,0.00,meteobridge,2013-12-16 03:35:00,
2013-12-15 22:40:00,27.1,15.8,29.72,West,270,3.1,3.1,62,0.00,,,0.00,meteobridge,2013-12-16 03:40:00,
2013-12-15 22:42:00,27.5,16.5,29.72,West,270,2.2,3.1,63,0.00,,,0.00,meteobridge,2013-12-16 03:42:00,
2013-12-15 22:47:00,27.9,16.9,29.72,West,270,0.0,0.0,63,0.00,,,0.00,meteobridge,2013-12-16 03:47:00,
2013-12-15 22:53:00,27.1,16.2,29.72,West,270,0.0,2.2,63,0.00,,,0.00,meteobridge,2013-12-16 03:53:00,
2013-12-15 22:58:00,27.3,16.3,29.72,South,180,0.7,0.7,63,0.00,,,0.00,meteobridge,2013-12-16 03:58:00,
2013-12-15 23:04:00,27.7,16.7,29.72,West,270,0.0,0.0,63,0.00,,,0.00,meteobridge,2013-12-16 04:04:00,
2013-12-15 23:10:00,28.2,17.2,29.72,West,270,2.2,2.2,63,0.00,,,0.00,meteobridge,2013-12-16 04:10:00,
2013-12-15 23:15:00,28.0,17.1,29.72,South,180,0.0,2.2,63,0.00,,,0.00,meteobridge,2013-12-16 04:15:00,
2013-12-15 23:21:00,28.2,17.2,29.73,West,270,0.7,2.2,63,0.00,,,0.00,meteobridge,2013-12-16 04:21:00,
2013-12-15 23:26:00,27.5,16.5,29.72,South,180,0.0,0.0,63,0.00,,,0.00,meteobridge,2013-12-16 04:26:00,
2013-12-15 23:32:00,28.6,19.0,29.73,West,270,0.0,0.0,67,0.00,,,0.00,meteobridge,2013-12-16 04:32:00,
2013-12-15 23:37:00,28.0,17.1,29.73,South,180,0.0,0.0,63,0.00,,,0.00,meteobridge,2013-12-16 04:37:00,
2013-12-15 23:43:00,27.7,16.3,29.72,SE,135,0.0,0.0,62,0.00,,,0.00,meteobridge,2013-12-16 04:43:00,
2013-12-15 23:49:00,27.3,16.0,29.73,West,270,2.2,2.2,62,0.00,,,0.00,meteobridge,2013-12-16 04:49:00,
2013-12-15 23:54:00,29.1,18.9,29.73,East,90,2.2,3.1,65,0.00,,,0.00,meteobridge,2013-12-16 04:54:00,